Time,TemperatureF,DewpointF,PressureIn,WindDirection,WindDirectionDegrees,WindSpeedMPH,WindSpeedGustMPH,Humidity,HourlyPrecipIn,Conditions,Clouds,dailyrainin,SoftwareType,DateUTC
2013-02-22 16:59:00,30.7,27.3,29.63,North,0,0.0,0.0,87,0.00,,,0.00,VWS V14.00,2013-02-22 21:59:00,
2013-02-22 17:00:00,30.7,27.3,29.63,North,0,0.0,0.0,87,0.00,,,0.00,VWS V14.00,2013-02-22 22:00:00,
2013-02-22 17:02:00,30.7,27.3,29.63,North,1,0.0,0.0,87,0.00,,,0.00,VWS V14.00,2013-02-22 22:02:00,
2013-02-22 17:07:00,30.7,27.3,29.63,North,0,0.0,0.0,87,0.00,,,0.00,VWS V14.00,2013-02-22 22:07:00,
2013-02-22 17:09:00,30.7,27.3,29.63,North,0,0.0,0.0,87,0.00,,,0.00,VWS V14.00,2013-02-22 22:09:00,
2013-02-22 17:14:00,30.7,27.3,29.63,North,1,0.0,0.0,87,0.00,,,0.00,VWS V14.00,2013-02-22 22:14:00,
2013-02-22 17:20:00,30.7,27.6,29.63,North,1,0.0,0.0,88,0.00,,,0.00,VWS V14.00,2013-02-22 22:20:00,
2013-02-22 17:25:00,30.7,27.6,29.60,North,1,0.0,0.0,88,0.00,,,0.00,VWS V14.00,2013-02-22 22:25:00,
2013-02-22 17:31:00,30.7,27.6,29.60,North,1,0.0,0.0,88,0.00,,,0.00,VWS V14.00,2013-02-22 22:31:00,
2013-02-22 17:36:00,30.7,27.6,29.60,North,2,0.0,0.0,88,0.00,,,0.00,VWS V14.00,2013-02-22 22:36:00,
2013-02-22 17:42:00,30.7,27.9,29.60,North,0,0.0,0.0,89,0.00,,,0.00,VWS V14.00,2013-02-22 22:42:00,
2013-02-22 17:47:00,30.9,28.1,29.60,North,1,0.0,0.0,89,0.00,,,0.00,VWS V14.00,2013-02-22 22:47:00,
2013-02-22 17:53:00,30.9,28.1,29.60,North,1,0.0,0.0,89,0.00,,,0.00,VWS V14.00,2013-02-22 22:53:00,
2013-02-22 17:59:00,30.9,28.3,29.60,North,0,0.0,0.0,90,0.00,,,0.00,VWS V14.00,2013-02-22 22:59:00,
2013-02-22 18:04:00,30.9,28.3,29.60,North,2,0.0,0.0,90,0.00,,,0.00,VWS V14.00,2013-02-22 23:04:00,
2013-02-22 18:09:00,30.9,28.3,29.63,North,1,0.0,0.0,90,0.00,,,0.00,VWS V14.00,2013-02-22 23:09:00,
2013-02-22 18:14:00,30.9,28.3,29.63,North,1,0.0,0.0,90,0.00,,,0.00,VWS V14.00,2013-02-22 23:14:00,
2013-02-22 18:19:00,30.9,28.6,29.63,North,1,0.0,0.0,91,0.00,,,0.00,VWS V14.00,2013-02-22 23:19:00,
2013-02-22 18:24:00,30.9,28.6,29.63,North,1,0.0,0.0,91,0.00,,,0.00,VWS V14.00,2013-02-22 23:24:00,
2013-02-22 18:29:00,30.9,28.6,29.63,North,0,0.0,0.0,91,0.00,,,0.00,VWS V14.00,2013-02-22 23:29:00,
2013-02-22 18:35:00,30.9,28.9,29.63,North,1,0.0,0.0,92,0.00,,,0.00,VWS V14.00,2013-02-22 23:35:00,
2013-02-22 18:40:00,30.9,28.9,29.63,North,1,0.0,0.0,92,0.00,,,0.00,VWS V14.00,2013-02-22 23:40:00,
2013-02-22 18:45:00,30.9,28.9,29.63,North,0,0.0,0.0,92,0.00,,,0.00,VWS V14.00,2013-02-22 23:45:00,
2013-02-22 18:51:00,31.1,29.3,29.63,SSE,162,0.0,2.7,93,0.00,,,0.00,VWS V14.00,2013-02-22 23:51:00,
2013-02-22 18:56:00,31.1,29.3,29.63,South,171,0.0,0.0,93,0.00,,,0.00,VWS V14.00,2013-02-22 23:56:00,
2013-02-22 19:02:00,31.1,29.3,29.63,SSW,197,0.0,4.0,93,0.00,,,0.00,VWS V14.00,2013-02-23 00:02:00,
2013-02-22 19:07:00,31.1,29.6,29.63,South,182,0.0,0.0,94,0.00,,,0.00,VWS V14.00,2013-02-23 00:07:00,
2013-02-22 19:13:00,31.1,29.6,29.63,North,4,0.0,2.7,94,0.00,,,0.00,VWS V14.00,2013-02-23 00:13:00,
2013-02-22 19:19:00,31.1,29.6,29.63,SSW,195,0.0,0.0,94,0.00,,,0.00,VWS V14.00,2013-02-23 00:19:00,
2013-02-22 19:24:00,31.3,29.8,29.63,SSW,201,0.0,0.0,94,0.00,,,0.00,VWS V14.00,2013-02-23 00:24:00,
2013-02-22 19:29:00,31.3,30.0,29.63,SSW,195,2.7,3.1,95,0.00,,,0.00,VWS V14.00,2013-02-23 00:29:00,
2013-02-22 19:34:00,31.3,30.0,29.63,SSW,195,3.6,3.6,95,0.00,,,0.00,VWS V14.00,2013-02-23 00:34:00,
2013-02-22 19:40:00,31.5,30.2,29.63,SSW,206,2.2,2.7,95,0.00,,,0.00,VWS V14.00,2013-02-23 00:40:00,
2013-02-22 19:45:00,31.5,30.2,29.63,SSW,203,0.0,3.1,95,0.00,,,0.00,VWS V14.00,2013-02-23 00:45:00,
2013-02-22 19:50:00,31.5,30.5,29.63,SSW,202,0.0,0.0,96,0.00,,,0.00,VWS V14.00,2013-02-23 00:50:00,
2013-02-22 19:56:00,31.5,30.5,29.63,SSW,203,0.0,0.0,96,0.00,,,0.00,VWS V14.00,2013-02-23 00:56:00,
2013-02-22 20:02:00,31.6,30.6,29.63,SSW,204,0.0,2.7,96,0.00,,,0.00,VWS V14.00,2013-02-23 01:02:00,
2013-02-22 20:07:00,31.6,30.6,29.63,SSW,204,3.1,3.1,96,0.00,,,0.00,VWS V14.00,2013-02-23 01:07:00,
2013-02-22 20:13:00,31.6,30.6,29.63,SSW,204,0.0,0.0,96,0.00,,,0.00,VWS V14.00,2013-02-23 01:13:00,
2013-02-22 20:19:00,31.6,30.6,29.63,SSW,203,2.7,4.0,96,0.00,,,0.00,VWS V14.00,2013-02-23 01:19:00,
2013-02-22 20:24:00,31.8,31.1,29.63,SSW,204,3.6,4.0,97,0.00,,,0.00,VWS V14.00,2013-02-23 01:24:00,
2013-02-22 20:29:00,31.8,31.1,29.63,SSW,202,3.6,3.6,97,0.00,,,0.00,VWS V14.00,2013-02-23 01:29:00,
2013-02-22 20:34:00,32.0,31.2,29.63,SSW,202,2.7,3.1,97,0.00,,,0.00,VWS V14.00,2013-02-23 01:34:00,
2013-02-22 20:40:00,32.2,31.4,29.63,SSW,199,3.1,3.6,97,0.00,,,0.00,VWS V14.00,2013-02-23 01:40:00,
2013-02-22 20:45:00,32.2,31.4,29.63,SSW,202,5.4,5.4,97,0.00,,,0.00,VWS V14.00,2013-02-23 01:45:00,
2013-02-22 20:51:00,32.4,31.9,29.63,SSW,204,3.1,3.6,98,0.00,,,0.00,VWS V14.00,2013-02-23 01:51:00,
2013-02-22 20:57:00,32.4,31.9,29.63,SSW,196,2.2,3.6,98,0.00,,,0.00,VWS V14.00,2013-02-23 01:57:00,
2013-02-22 21:02:00,32.5,32.0,29.63,SSW,200,3.1,4.0,98,0.00,,,0.00,VWS V14.00,2013-02-23 02:02:00,
2013-02-22 21:08:00,32.5,32.0,29.63,SSW,199,3.1,4.0,98,0.00,,,0.00,VWS V14.00,2013-02-23 02:08:00,
2013-02-22 21:13:00,32.5,32.0,29.63,SSW,199,4.0,5.8,98,0.00,,,0.00,VWS V14.00,2013-02-23 02:13:00,
2013-02-22 21:19:00,32.7,32.2,29.63,SSW,201,3.1,3.6,98,0.00,,,0.00,VWS V14.00,2013-02-23 02:19:00,
2013-02-22 21:24:00,32.7,32.2,29.63,South,184,4.9,5.4,98,0.00,,,0.00,VWS V14.00,2013-02-23 02:24:00,
2013-02-22 21:30:00,32.7,32.2,29.63,SSW,206,5.4,5.8,98,0.00,,,0.00,VWS V14.00,2013-02-23 02:30:00,
2013-02-22 21:35:00,32.9,32.4,29.63,SSW,211,5.8,5.8,98,0.00,,,0.00,VWS V14.00,2013-02-23 02:35:00,
2013-02-22 21:40:00,32.9,32.4,29.63,SSW,193,3.6,6.3,98,0.00,,,0.00,VWS V14.00,2013-02-23 02:40:00,
2013-02-22 21:45:00,33.1,32.6,29.63,SSW,202,8.3,8.3,98,0.00,,,0.00,VWS V14.00,2013-02-23 02:45:00,
2013-02-22 21:51:00,33.1,32.6,29.63,SSW,194,5.8,5.8,98,0.00,,,0.00,VWS V14.00,2013-02-23 02:51:00,
2013-02-22 21:57:00,33.1,32.6,29.63,SSW,195,5.8,6.3,98,0.00,,,0.00,VWS V14.00,2013-02-23 02:57:00,
2013-02-22 22:02:00,33.1,32.6,29.63,SSW,213,6.7,8.7,98,0.00,,,0.00,VWS V14.00,2013-02-23 03:02:00,
2013-02-22 22:07:00,33.1,32.6,29.63,SSW,207,10.1,10.1,98,0.00,,,0.00,VWS V14.00,2013-02-23 03:07:00,
2013-02-22 22:12:00,33.1,32.6,29.63,WSW,244,4.9,10.5,98,0.00,,,0.00,VWS V14.00,2013-02-23 03:12:00,
2013-02-22 22:17:00,33.1,32.6,29.63,SW,219,5.4,6.3,98,0.00,,,0.00,VWS V14.00,2013-02-23 03:17:00,
2013-02-22 22:22:00,33.1,32.6,29.63,SSW,208,5.8,8.3,98,0.00,,,0.00,VWS V14.00,2013-02-23 03:22:00,
2013-02-22 22:28:00,33.1,32.6,29.63,South,191,3.1,3.1,98,0.00,,,0.00,VWS V14.00,2013-02-23 03:28:00,
2013-02-22 22:33:00,33.1,32.6,29.63,SSW,212,7.6,7.6,98,0.00,,,0.00,VWS V14.00,2013-02-23 03:33:00,
2013-02-22 22:39:00,33.1,32.6,29.63,SSW,202,4.0,6.3,98,0.00,,,0.00,VWS V14.00,2013-02-23 03:39:00,
2013-02-22 22:45:00,33.1,32.6,29.63,SW,218,5.4,5.4,98,0.00,,,0.00,VWS V14.00,2013-02-23 03:45:00,
2013-02-22 22:50:00,33.1,32.6,29.63,SSW,192,5.8,8.7,98,0.00,,,0.00,VWS V14.00,2013-02-23 03:50:00,
2013-02-22 22:56:00,33.1,32.6,29.63,SSW,211,4.0,4.0,98,0.00,,,0.00,VWS V14.00,2013-02-23 03:56:00,
2013-02-22 23:01:00,33.1,32.6,29.63,South,191,8.3,8.3,98,0.00,,,0.00,VWS V14.00,2013-02-23 04:01:00,
2013-02-22 23:07:00,32.9,32.4,29.63,SSW,212,8.7,10.1,98,0.00,,,0.00,VWS V14.00,2013-02-23 04:07:00,
2013-02-22 23:12:00,32.7,32.2,29.63,SSW,201,8.3,8.7,98,0.00,,,0.00,VWS V14.00,2013-02-23 04:12:00,
2013-02-22 23:17:00,32.7,32.2,29.63,SSW,205,6.3,6.3,98,0.00,,,0.00,VWS V14.00,2013-02-23 04:17:00,
2013-02-22 23:22:00,32.7,32.0,29.63,SSW,205,10.5,10.5,97,0.00,,,0.00,VWS V14.00,2013-02-23 04:22:00,
2013-02-22 23:27:00,32.5,31.5,29.63,WSW,250,7.6,7.6,96,0.00,,,0.00,VWS V14.00,2013-02-23 04:27:00,
2013-02-22 23:33:00,32.5,31.3,29.63,SSW,199,8.1,8.1,95,0.00,,,0.00,VWS V14.00,2013-02-23 04:33:00,
2013-02-22 23:39:00,32.5,31.0,29.63,SSW,208,6.3,8.7,94,0.00,,,0.00,VWS V14.00,2013-02-23 04:39:00,
2013-02-22 23:44:00,32.5,31.0,29.63,SSW,209,5.4,5.4,94,0.00,,,0.00,VWS V14.00,2013-02-23 04:44:00,
2013-02-22 23:50:00,32.4,30.6,29.63,SW,220,7.6,7.6,93,0.00,,,0.00,VWS V14.00,2013-02-23 04:50:00,
2013-02-22 23:55:00,32.4,30.6,29.63,SSW,204,4.9,8.7,93,0.00,,,0.00,VWS V14.00,2013-02-23 04:55:00,